Mora RC

2021-07-24 19:50:00

  • imperial
Date Time Air Temperature Relative Humidity Dewpoint Windchill Heat Index Wind Speed Wind Dir. Rain Solar Radiation Soil Temperature
2m 2m 3m 3m 10cm
US/Mountain F % F F F MPH deg in MJ/m^2 F
max avg avg
2021-07-23 20:00:00 62.0 63.6 49.6 62.0 62.0 0.0 0.8 0.0 231.0 239.0 0.00 0.0001263 71.9
2021-07-23 20:05:00 61.9 65.8 50.3 61.9 61.9 0.0 0.8 0.1 254.6 254.8 0.00 0.0000564 71.8
2021-07-23 20:10:00 61.5 67.6 50.7 61.5 61.5 0.0 0.8 0.1 240.3 263.0 0.00 0.0000000 71.7
2021-07-23 20:15:00 61.4 68.4 50.8 61.4 61.4 0.0 0.8 0.1 170.5 271.6 0.00 0.0000000 71.6
2021-07-23 20:20:00 61.1 68.5 50.6 61.1 61.1 0.0 2.1 0.2 234.5 264.2 0.00 0.0000000 71.4
2021-07-23 20:25:00 60.9 68.4 50.4 60.9 60.9 0.0 2.2 0.2 263.5 244.5 0.00 0.0000000 71.3
2021-07-23 20:30:00 60.6 68.4 50.1 60.6 60.6 0.0 0.8 0.1 270.4 186.6 0.00 0.0000000 71.3
2021-07-23 20:35:00 60.5 69.2 50.3 60.5 60.5 0.0 2.1 0.1 223.8 258.4 0.00 0.0000000 71.1
2021-07-23 20:40:00 59.9 71.6 50.7 59.9 59.9 0.0 1.2 0.1 174.9 272.0 0.00 0.0000000 71.0
2021-07-23 20:45:00 59.3 73.3 50.8 59.3 59.3 1.2 1.3 0.2 244.8 208.8 0.00 0.0000000 70.9
2021-07-23 20:50:00 59.2 73.3 50.7 59.2 59.2 0.0 1.5 0.3 214.1 232.7 0.00 0.0000000 70.8
2021-07-23 20:55:00 59.2 73.6 50.8 59.2 59.2 1.5 1.7 0.4 175.7 245.0 0.00 0.0000000 70.7
2021-07-23 21:00:00 59.4 72.3 50.5 59.4 59.4 2.8 2.8 0.7 166.0 203.3 0.00 0.0000000 70.6
2021-07-23 21:05:00 59.1 74.2 50.9 59.1 59.1 0.0 1.0 0.1 188.6 168.8 0.00 0.0000000 70.5
2021-07-23 21:10:00 58.4 75.6 50.7 58.4 58.4 0.0 1.7 0.4 282.0 197.0 0.00 0.0000000 70.4
2021-07-23 21:15:00 58.9 73.8 50.5 58.9 58.9 0.0 4.6 0.7 206.0 249.4 0.00 0.0000000 70.3
2021-07-23 21:20:00 59.3 73.1 50.6 59.3 59.3 1.0 4.0 1.1 251.5 215.1 0.00 0.0000000 70.2
2021-07-23 21:25:00 58.9 73.8 50.6 58.9 58.9 1.5 5.5 3.1 268.0 223.6 0.00 0.0000000 70.1
2021-07-23 21:30:00 59.4 72.5 50.5 59.4 59.4 4.7 4.7 1.2 224.0 237.5 0.00 0.0000000 70.0
2021-07-23 21:35:00 59.0 73.5 50.6 59.0 59.0 0.0 6.2 1.4 187.2 257.8 0.00 0.0000000 69.9
2021-07-23 21:40:00 58.4 76.3 51.0 58.4 58.4 0.8 0.8 0.1 229.3 223.2 0.00 0.0000000 69.8
2021-07-23 21:45:00 58.1 76.9 50.9 58.1 58.1 0.0 0.8 0.0 253.7 269.9 0.00 0.0000000 69.7
2021-07-23 21:50:00 58.3 76.6 51.0 58.3 58.3 0.0 2.8 0.3 265.1 254.1 0.00 0.0000000 69.6
2021-07-23 21:55:00 58.0 77.7 51.1 58.0 58.0 0.0 0.0 0.0 224.5 0.0 0.00 0.0000000 69.5
2021-07-23 22:00:00 57.9 77.5 50.9 57.9 57.9 0.0 0.0 0.0 263.6 0.0 0.00 0.0000000 69.5
2021-07-23 22:05:00 58.0 77.1 50.8 58.0 58.0 2.1 2.1 0.1 233.8 255.5 0.00 0.0000000 69.4
2021-07-23 22:10:00 57.5 79.0 51.0 57.5 57.5 0.0 2.8 0.2 279.8 262.8 0.00 0.0000000 69.3
2021-07-23 22:15:00 57.0 79.6 50.8 57.0 57.0 0.0 0.0 0.0 246.6 0.0 0.00 0.0000000 69.2
2021-07-23 22:20:00 57.5 77.9 50.6 57.5 57.5 0.0 0.0 0.0 221.8 0.0 0.00 0.0000000 69.1
2021-07-23 22:25:00 57.8 76.5 50.5 57.8 57.8 0.0 0.0 0.0 247.8 0.0 0.00 0.0000000 69.0
2021-07-23 22:30:00 58.0 76.0 50.5 58.0 58.0 0.0 2.1 0.1 276.0 267.0 0.00 0.0000000 68.9
2021-07-23 22:35:00 57.9 75.9 50.4 57.9 57.9 0.0 0.0 0.0 252.4 0.0 0.00 0.0000000 68.8
2021-07-23 22:40:00 57.1 77.9 50.2 57.1 57.1 0.0 1.7 0.2 275.2 256.3 0.00 0.0000000 68.7
2021-07-23 22:45:00 57.1 78.0 50.3 57.1 57.1 0.8 2.4 0.5 28.2 301.4 0.00 0.0000000 68.6
2021-07-23 22:50:00 56.8 78.6 50.2 56.8 56.8 0.0 0.8 0.1 333.4 307.0 0.00 0.0000000 68.6
2021-07-23 22:55:00 56.6 79.0 50.1 56.6 56.6 0.0 1.0 0.1 217.4 186.1 0.00 0.0000000 68.5
2021-07-23 23:00:00 57.3 76.0 49.8 57.3 57.3 0.0 1.0 0.1 183.2 240.0 0.00 0.0000000 68.4
2021-07-23 23:05:00 56.3 80.0 50.2 56.3 56.3 0.8 0.8 0.1 253.1 223.6 0.00 0.0000000 68.3
2021-07-23 23:10:00 55.9 80.3 50.0 55.9 55.9 0.0 1.3 0.1 279.1 253.8 0.00 0.0000000 68.3
2021-07-23 23:15:00 56.9 76.9 49.7 56.9 56.9 0.0 0.8 0.0 327.1 242.5 0.00 0.0000000 68.2
2021-07-23 23:20:00 57.3 75.9 49.7 57.3 57.3 0.0 1.7 0.1 305.2 280.9 0.00 0.0000000 68.1
2021-07-23 23:25:00 56.9 77.2 49.8 56.9 56.9 0.0 5.3 0.8 261.7 254.8 0.00 0.0000000 68.0
2021-07-23 23:30:00 56.3 79.0 49.9 56.3 56.3 0.0 0.0 0.0 141.5 0.0 0.00 0.0000000 68.0
2021-07-23 23:35:00 55.6 81.6 50.0 55.6 55.6 0.0 0.8 0.1 162.3 130.1 0.00 0.0000000 67.9
2021-07-23 23:40:00 55.7 80.9 49.9 55.7 55.7 0.8 0.8 0.0 131.7 131.7 0.00 0.0000000 67.8
2021-07-23 23:45:00 55.9 81.1 50.2 55.9 55.9 0.0 0.8 0.1 340.0 253.6 0.00 0.0000000 67.7
2021-07-23 23:50:00 55.8 81.4 50.2 55.8 55.8 0.0 0.8 0.1 301.5 299.3 0.00 0.0000000 67.7
2021-07-23 23:55:00 55.6 82.2 50.2 55.6 55.6 0.0 1.0 0.1 270.0 277.1 0.00 0.0000000 67.6
2021-07-24 00:00:00 55.7 81.3 50.0 55.7 55.7 1.9 3.3 2.0 222.0 253.1 0.00 0.0000000 67.6
2021-07-24 00:05:00 55.5 81.1 49.8 55.5 55.5 4.0 5.5 2.9 277.4 250.5 0.00 0.0000000 67.5
2021-07-24 00:10:00 55.5 81.6 50.0 55.5 55.5 3.0 4.4 2.9 299.3 299.0 0.00 0.0000000 67.4
2021-07-24 00:15:00 55.8 80.2 49.8 55.8 55.8 2.2 4.0 2.6 276.2 300.5 0.00 0.0000000 67.4
2021-07-24 00:20:00 56.0 79.9 49.9 56.0 56.0 3.0 3.8 2.4 313.2 288.3 0.00 0.0000000 67.3
2021-07-24 00:25:00 56.3 79.4 50.0 56.3 56.3 2.4 3.8 2.8 267.5 275.5 0.00 0.0000000 67.2
2021-07-24 00:30:00 55.5 81.4 49.9 55.5 55.5 3.7 3.7 2.5 275.3 232.3 0.00 0.0000000 67.2
2021-07-24 00:35:00 55.0 82.8 49.8 55.0 55.0 3.1 4.7 3.3 312.5 279.6 0.00 0.0000000 67.1
2021-07-24 00:40:00 55.1 82.2 49.8 55.1 55.1 2.2 4.7 3.2 279.7 265.3 0.00 0.0000000 67.0
2021-07-24 00:45:00 54.9 82.7 49.7 54.9 54.9 3.7 3.7 1.9 277.5 268.1 0.00 0.0000000 67.0
2021-07-24 00:50:00 54.1 84.8 49.7 54.1 54.1 4.4 5.1 3.6 274.8 271.5 0.00 0.0000000 66.9
2021-07-24 00:55:00 53.6 86.1 49.6 53.6 53.6 3.8 4.9 3.8 282.7 262.9 0.00 0.0000000 66.8
2021-07-24 01:00:00 53.7 85.4 49.5 53.7 53.7 3.8 4.9 3.2 254.8 269.2 0.00 0.0000000 66.8
2021-07-24 01:05:00 53.9 84.8 49.5 53.9 53.9 4.9 6.3 3.6 229.7 262.6 0.00 0.0000000 66.7
2021-07-24 01:10:00 53.7 85.1 49.3 53.7 53.7 4.0 5.6 4.7 232.8 256.8 0.00 0.0000000 66.7
2021-07-24 01:15:00 53.4 85.8 49.2 53.4 53.4 3.1 6.2 4.0 235.2 255.6 0.00 0.0000000 66.6
2021-07-24 01:20:00 53.1 86.7 49.3 53.1 53.1 3.3 6.9 3.6 246.5 245.2 0.00 0.0000000 66.5
2021-07-24 01:25:00 53.1 86.1 49.1 53.1 53.1 3.1 5.6 3.7 258.0 233.9 0.00 0.0000000 66.5
2021-07-24 01:30:00 53.4 85.8 49.2 53.4 53.4 4.0 6.3 4.7 271.3 265.4 0.00 0.0000000 66.4
2021-07-24 01:35:00 53.3 85.9 49.2 53.3 53.3 4.4 6.5 4.4 251.0 261.7 0.00 0.0000000 66.4
2021-07-24 01:40:00 53.1 85.6 48.9 53.1 53.1 2.8 7.4 4.9 190.6 250.8 0.00 0.0000000 66.3
2021-07-24 01:45:00 52.8 87.0 49.1 52.8 52.8 4.7 6.7 4.1 262.6 241.8 0.00 0.0000000 66.3
2021-07-24 01:50:00 53.1 86.4 49.2 53.1 53.1 5.3 6.9 3.7 273.3 250.3 0.00 0.0000000 66.2
2021-07-24 01:55:00 53.7 85.0 49.3 53.7 53.7 2.2 8.0 4.7 300.5 273.8 0.00 0.0000000 66.1
2021-07-24 02:00:00 53.5 85.7 49.3 53.5 53.5 4.0 5.8 3.5 275.6 278.8 0.00 0.0000000 66.0
2021-07-24 02:05:00 53.3 86.0 49.2 53.3 53.3 3.1 4.7 3.7 196.7 234.3 0.00 0.0000000 66.0
2021-07-24 02:10:00 52.6 87.4 48.9 52.6 52.6 4.2 6.0 3.8 200.2 220.1 0.00 0.0000000 65.9
2021-07-24 02:15:00 52.3 88.6 49.1 52.3 52.3 3.3 5.5 3.7 272.3 238.6 0.00 0.0000000 65.9
2021-07-24 02:20:00 52.7 87.6 49.1 52.7 52.7 3.1 6.5 3.8 347.0 271.2 0.00 0.0000000 65.8
2021-07-24 02:25:00 53.0 86.6 49.1 53.0 53.0 4.6 6.2 2.6 194.2 231.1 0.00 0.0000000 65.8
2021-07-24 02:30:00 52.3 87.1 48.5 52.3 52.3 2.4 4.7 3.6 212.1 218.5 0.00 0.0000000 65.7
2021-07-24 02:35:00 52.3 87.5 48.7 52.3 52.3 2.8 4.6 3.3 304.4 275.9 0.00 0.0000000 65.6
2021-07-24 02:40:00 52.5 87.6 48.9 52.5 52.5 3.5 5.5 3.7 299.4 269.1 0.00 0.0000000 65.6
2021-07-24 02:45:00 52.5 87.3 48.8 52.5 52.5 5.3 6.3 4.0 266.5 260.8 0.00 0.0000000 65.6
2021-07-24 02:50:00 52.6 86.7 48.8 52.6 52.6 2.2 5.8 3.6 236.5 271.0 0.00 0.0000000 65.5
2021-07-24 02:55:00 52.5 86.9 48.7 52.5 52.5 4.0 5.8 3.5 142.9 252.5 0.00 0.0000000 65.4
2021-07-24 03:00:00 52.5 87.0 48.8 52.5 52.5 3.1 6.0 3.1 176.5 223.4 0.00 0.0000000 65.4
2021-07-24 03:05:00 52.4 86.7 48.5 52.4 52.4 2.6 4.9 2.5 212.4 233.6 0.00 0.0000000 65.3
2021-07-24 03:10:00 52.6 87.0 48.9 52.6 52.6 3.5 5.5 3.8 313.2 273.8 0.00 0.0000000 65.3
2021-07-24 03:15:00 53.1 85.9 49.0 53.1 53.1 4.6 5.6 3.2 243.0 282.3 0.00 0.0000000 65.2
2021-07-24 03:20:00 53.2 84.7 48.7 53.2 53.2 3.5 5.3 3.9 321.0 288.8 0.00 0.0000000 65.2
2021-07-24 03:25:00 53.0 85.1 48.6 53.0 53.0 2.8 5.5 3.8 265.8 268.5 0.00 0.0000000 65.1
2021-07-24 03:30:00 52.5 86.1 48.4 52.5 52.5 3.1 5.1 3.4 206.6 239.1 0.00 0.0000000 65.1
2021-07-24 03:35:00 52.4 87.1 48.7 52.4 52.4 3.3 6.5 3.8 187.1 227.7 0.00 0.0000000 65.0
2021-07-24 03:40:00 52.3 88.1 48.9 52.3 52.3 3.5 4.9 3.2 315.7 250.6 0.00 0.0000000 65.0
2021-07-24 03:45:00 52.5 87.5 48.9 52.5 52.5 1.7 4.0 1.8 284.8 7.6 0.00 0.0000000 64.9
2021-07-24 03:50:00 52.2 87.9 48.7 52.2 52.2 2.1 2.6 1.8 211.4 242.6 0.00 0.0000000 64.9
2021-07-24 03:55:00 51.9 88.8 48.7 51.9 51.9 2.6 2.6 1.4 205.0 226.2 0.00 0.0000000 64.8
2021-07-24 04:00:00 51.9 88.5 48.6 51.9 51.9 2.6 3.7 2.8 211.8 200.8 0.00 0.0000000 64.8
2021-07-24 04:05:00 51.7 88.3 48.3 51.7 51.7 4.2 4.2 2.7 235.2 201.9 0.00 0.0000000 64.7
2021-07-24 04:10:00 51.5 89.4 48.5 51.5 51.5 3.7 5.1 3.8 246.8 242.5 0.00 0.0000000 64.7
2021-07-24 04:15:00 51.4 88.9 48.3 51.4 51.4 2.6 4.6 3.2 93.8 195.8 0.00 0.0000000 64.6
2021-07-24 04:20:00 51.4 89.8 48.5 51.4 51.4 1.2 2.6 1.6 290.2 174.5 0.00 0.0000000 64.6
2021-07-24 04:25:00 51.4 90.2 48.7 51.4 51.4 4.2 4.6 2.4 201.9 217.5 0.00 0.0000000 64.6
2021-07-24 04:30:00 51.7 89.3 48.7 51.7 51.7 3.0 5.1 3.8 343.6 231.5 0.00 0.0000000 64.5
2021-07-24 04:35:00 52.0 88.7 48.7 52.0 52.0 5.3 6.7 3.9 262.1 254.5 0.00 0.0000000 64.5
2021-07-24 04:40:00 52.2 87.5 48.6 52.2 52.2 4.4 6.2 4.5 233.8 256.9 0.00 0.0000000 64.4
2021-07-24 04:45:00 52.4 86.5 48.5 52.4 52.4 3.5 7.4 4.2 275.1 251.5 0.00 0.0000000 64.4
2021-07-24 04:50:00 52.5 86.0 48.5 52.5 52.5 4.6 6.7 4.9 222.8 246.9 0.00 0.0000000 64.4
2021-07-24 04:55:00 52.2 86.7 48.3 52.2 52.2 3.0 6.0 4.2 256.4 237.9 0.00 0.0000000 64.3
2021-07-24 05:00:00 51.9 87.3 48.3 51.9 51.9 2.8 6.0 3.7 250.3 246.2 0.00 0.0000000 64.3
2021-07-24 05:05:00 51.4 88.1 48.0 51.4 51.4 4.6 5.3 3.7 206.3 239.9 0.00 0.0000000 64.2
2021-07-24 05:10:00 51.2 89.3 48.1 51.2 51.2 2.2 5.1 3.1 232.9 250.9 0.00 0.0000000 64.2
2021-07-24 05:15:00 51.4 89.1 48.3 51.4 51.4 4.7 6.7 4.0 228.7 247.2 0.00 0.0000000 64.1
2021-07-24 05:20:00 51.5 88.5 48.3 51.5 51.5 2.8 7.1 4.3 196.9 244.2 0.00 0.0000000 64.1
2021-07-24 05:25:00 51.4 88.9 48.3 51.4 51.4 3.0 5.6 3.6 238.3 225.9 0.00 0.0000000 64.1
2021-07-24 05:30:00 51.5 89.3 48.5 51.5 51.5 5.6 5.6 3.6 259.7 234.7 0.00 0.0000000 64.0
2021-07-24 05:35:00 51.5 89.2 48.5 51.5 51.5 3.7 6.3 4.0 254.9 252.0 0.00 0.0000000 64.0
2021-07-24 05:40:00 51.9 88.1 48.5 51.9 51.9 2.8 7.1 4.2 211.6 255.6 0.00 0.0000000 64.0
2021-07-24 05:45:00 52.2 87.5 48.6 52.2 52.2 2.8 6.7 3.6 282.0 243.5 0.00 0.0000000 63.9
2021-07-24 05:50:00 52.3 87.0 48.5 52.3 52.3 2.8 6.3 4.2 220.9 242.0 0.00 0.0000000 63.9
2021-07-24 05:55:00 52.7 85.5 48.4 52.7 52.7 3.5 7.4 4.7 306.0 258.7 0.00 0.0000000 63.8
2021-07-24 06:00:00 52.7 85.5 48.4 52.7 52.7 2.4 6.5 3.9 330.8 297.9 0.00 0.0000000 63.8
2021-07-24 06:05:00 52.4 85.3 48.1 52.4 52.4 2.2 4.0 2.9 281.0 285.5 0.00 0.0000660 63.8
2021-07-24 06:10:00 51.4 87.4 47.8 51.4 51.4 3.1 4.4 2.7 288.0 271.1 0.00 0.0005944 63.7
2021-07-24 06:15:00 51.2 89.7 48.3 51.2 51.2 5.5 6.2 3.7 235.7 261.9 0.00 0.0018849 63.7
2021-07-24 06:20:00 51.3 88.9 48.1 51.3 51.3 3.8 4.7 3.4 232.7 232.1 0.00 0.0033798 63.7
2021-07-24 06:25:00 51.4 89.2 48.3 51.4 51.4 2.2 4.9 3.4 260.1 234.2 0.00 0.0050622 63.6
2021-07-24 06:30:00 51.6 89.8 48.7 51.6 51.6 4.4 6.0 4.6 241.2 225.8 0.00 0.0078894 63.6
2021-07-24 06:35:00 52.2 88.2 48.8 52.2 52.2 5.3 6.0 3.9 221.5 240.5 0.00 0.0120695 63.6
2021-07-24 06:40:00 53.0 85.7 48.8 53.0 53.0 5.1 8.1 4.7 253.1 250.7 0.00 0.0226354 63.5
2021-07-24 06:45:00 53.5 84.7 49.0 53.5 53.5 4.6 6.3 4.1 307.2 285.9 0.00 0.0261390 63.5
2021-07-24 06:50:00 54.2 82.9 49.1 54.2 54.2 4.0 6.5 4.4 308.8 288.2 0.00 0.0291867 63.5
2021-07-24 06:55:00 54.4 82.4 49.1 54.4 54.4 6.0 7.8 4.9 274.7 278.3 0.00 0.0312290 63.5
2021-07-24 07:00:00 54.5 83.2 49.5 54.5 54.5 3.1 8.3 5.1 173.4 259.2 0.00 0.0362706 63.4
2021-07-24 07:05:00 55.0 82.5 49.7 55.0 55.0 4.7 6.7 4.2 253.9 263.2 0.00 0.0475090 63.4
2021-07-24 07:10:00 55.5 80.3 49.5 55.5 55.5 5.8 6.3 4.2 258.4 272.3 0.00 0.0530064 63.4
2021-07-24 07:15:00 55.8 79.6 49.6 55.8 55.8 5.3 6.0 4.3 267.2 277.6 0.00 0.0526346 63.4
2021-07-24 07:20:00 56.5 79.7 50.3 56.5 56.5 3.5 6.5 4.4 227.3 269.5 0.00 0.0601685 63.4
2021-07-24 07:25:00 57.1 78.5 50.5 57.1 57.1 1.9 6.0 4.1 253.4 264.2 0.00 0.0658722 63.4
2021-07-24 07:30:00 57.9 75.5 50.2 57.9 57.9 3.7 5.1 3.2 313.9 284.4 0.00 0.0710962 63.4
2021-07-24 07:35:00 58.7 75.8 51.1 58.7 58.7 1.9 6.2 3.4 244.9 261.8 0.00 0.0799058 63.4
2021-07-24 07:40:00 59.1 73.5 50.6 59.1 59.1 4.9 6.0 4.3 253.5 280.8 0.00 0.0856282 63.4
2021-07-24 07:45:00 59.8 73.5 51.3 59.8 59.8 5.1 6.7 4.8 279.9 261.2 0.00 0.0929985 63.5
2021-07-24 07:50:00 60.5 73.3 51.9 60.5 60.5 3.0 5.6 4.3 232.5 271.3 0.00 0.0926695 63.5
2021-07-24 07:55:00 61.6 71.1 52.2 61.6 61.6 2.4 4.0 2.7 299.6 280.7 0.00 0.0918063 63.6
2021-07-24 08:00:00 62.2 71.3 52.8 62.2 62.2 1.7 4.6 3.1 255.7 277.4 0.00 0.0937658 63.6
2021-07-24 08:05:00 62.9 67.3 51.9 62.9 62.9 4.0 4.0 2.5 269.9 242.0 0.00 0.0986809 63.6
2021-07-24 08:10:00 63.8 65.5 52.0 63.8 63.8 1.9 3.3 1.9 298.7 270.4 0.00 0.1037192 63.7
2021-07-24 08:15:00 64.3 66.6 53.0 64.3 64.3 0.8 3.3 2.1 302.2 251.0 0.00 0.1080043 63.8
2021-07-24 08:20:00 65.3 62.7 52.2 65.3 65.3 1.9 2.4 0.7 340.3 323.4 0.00 0.1124147 63.8
2021-07-24 08:25:00 66.7 57.7 51.3 66.7 66.7 0.8 1.2 0.2 145.6 70.8 0.00 0.1165240 63.9
2021-07-24 08:30:00 67.6 56.8 51.7 67.6 67.6 1.0 1.5 0.9 124.3 147.1 0.00 0.1226024 64.0
2021-07-24 08:35:00 67.6 54.2 50.4 67.6 67.6 0.0 0.8 0.2 128.1 153.2 0.00 0.1271685 64.1
2021-07-24 08:40:00 67.8 59.0 53.0 67.8 67.8 0.0 1.0 0.2 148.9 153.9 0.00 0.1324050 64.2
2021-07-24 08:45:00 67.8 55.4 51.2 67.8 67.8 0.0 1.2 0.4 161.0 119.3 0.00 0.1371042 64.2
2021-07-24 08:50:00 68.5 55.3 51.9 68.5 68.5 0.0 1.0 0.3 145.5 95.0 0.00 0.1430518 64.4
2021-07-24 08:55:00 69.0 55.4 52.3 69.0 69.0 0.0 1.2 0.2 27.8 57.1 0.00 0.1484268 64.5
2021-07-24 09:00:00 69.3 55.9 52.9 69.3 69.3 1.3 1.3 0.9 130.2 124.5 0.00 0.1542367 64.6
2021-07-24 09:05:00 70.1 51.6 51.4 70.1 70.1 0.0 4.0 0.8 137.2 76.7 0.00 0.1601838 64.7
2021-07-24 09:10:00 70.4 52.1 52.0 70.4 70.4 0.0 3.0 0.6 143.0 89.3 0.00 0.1664988 64.9
2021-07-24 09:15:00 70.4 54.3 53.1 70.4 70.4 2.2 2.6 0.8 328.7 21.6 0.00 0.1714290 65.0
2021-07-24 09:20:00 70.5 49.9 50.9 70.5 70.5 0.0 3.5 0.5 86.6 66.3 0.00 0.1759749 65.2
2021-07-24 09:25:00 70.4 51.7 51.8 70.4 70.4 0.0 3.0 0.2 88.0 89.1 0.00 0.1804931 65.4
2021-07-24 09:30:00 70.5 52.5 52.3 70.5 70.5 0.0 6.5 1.5 102.1 90.9 0.00 0.1865390 65.5
2021-07-24 09:35:00 70.3 50.9 51.2 70.3 70.3 0.8 1.2 0.5 145.1 103.9 0.00 0.1844934 65.8
2021-07-24 09:40:00 69.7 51.7 51.2 69.7 69.7 0.8 2.4 0.8 109.0 107.7 0.00 0.1110682 66.0
2021-07-24 09:45:00 70.4 50.1 50.9 70.4 70.4 0.0 1.9 0.6 105.7 91.6 0.00 0.2063548 66.2
2021-07-24 09:50:00 71.7 53.3 53.8 71.7 71.7 0.8 1.5 0.9 99.4 72.4 0.00 0.1887359 66.4
2021-07-24 09:55:00 70.8 50.1 51.3 70.8 70.8 0.0 1.5 0.9 93.7 91.5 0.00 0.1527619 66.7
2021-07-24 10:00:00 71.0 48.4 50.6 71.0 71.0 0.8 2.1 0.4 103.7 83.3 0.00 0.1923188 66.9
2021-07-24 10:05:00 71.9 49.2 51.8 71.9 71.9 0.0 4.7 0.7 48.9 99.2 0.00 0.2453852 67.1
2021-07-24 10:10:00 72.3 48.0 51.5 72.3 72.3 1.5 2.2 0.6 38.2 64.6 0.00 0.1965197 67.4
2021-07-24 10:15:00 72.2 49.4 52.2 72.2 72.2 1.5 1.7 1.2 112.9 97.2 0.00 0.1828589 67.6
2021-07-24 10:20:00 73.1 44.1 50.0 73.1 73.1 3.0 5.6 2.5 107.1 87.9 0.00 0.2545032 67.9
2021-07-24 10:25:00 72.6 46.4 50.9 72.6 72.6 0.0 6.0 2.7 78.3 86.9 0.00 0.1653395 68.1
2021-07-24 10:30:00 71.4 45.9 49.5 71.4 71.4 0.0 0.8 0.0 80.7 16.8 0.00 0.1766076 68.4
2021-07-24 10:35:00 70.5 49.1 50.4 70.5 70.5 0.0 0.8 0.0 71.8 134.3 0.00 0.1051551 68.7
2021-07-24 10:40:00 72.2 45.8 50.1 72.2 72.2 0.0 0.8 0.0 31.2 77.4 0.00 0.2116967 69.0
2021-07-24 10:45:00 71.8 47.2 50.6 71.8 71.8 0.0 1.0 0.2 90.8 93.8 0.00 0.0974297 69.2
2021-07-24 10:50:00 71.2 50.0 51.6 71.2 71.2 0.0 1.0 0.1 139.9 98.1 0.00 0.0889157 69.5
2021-07-24 10:55:00 70.6 48.4 50.2 70.6 70.6 0.0 1.5 0.4 96.0 103.6 0.00 0.0908271 69.7
2021-07-24 11:00:00 70.2 51.9 51.7 70.2 70.2 0.0 1.0 0.2 91.6 125.3 0.00 0.0699808 69.8
2021-07-24 11:05:00 69.6 50.6 50.4 69.6 69.6 0.0 1.2 0.1 66.8 88.6 0.00 0.0542442 70.0
2021-07-24 11:10:00 69.2 52.9 51.3 69.2 69.2 0.0 0.0 0.0 87.9 0.0 0.00 0.0470157 70.2
2021-07-24 11:15:00 68.6 55.2 51.9 68.6 68.6 0.0 0.0 0.0 122.4 0.0 0.00 0.0448745 70.3
2021-07-24 11:20:00 67.9 55.0 51.2 67.9 67.9 0.0 0.8 0.0 105.3 106.7 0.00 0.0463431 70.4
2021-07-24 11:25:00 65.8 58.5 50.8 65.8 65.8 1.0 1.5 0.2 136.7 119.1 0.00 0.0382932 70.4
2021-07-24 11:30:00 63.7 64.3 51.4 63.7 63.7 1.0 1.5 0.6 127.3 131.0 0.00 0.0376429 70.5
2021-07-24 11:35:00 63.5 63.6 50.9 63.5 63.5 0.0 1.3 0.5 103.3 135.4 0.00 0.0394897 70.5
2021-07-24 11:40:00 63.6 60.8 49.8 63.6 63.6 0.0 0.8 0.1 157.7 111.9 0.00 0.0447765 70.5
2021-07-24 11:45:00 64.1 60.0 49.9 64.1 64.1 0.0 2.1 0.4 289.4 93.0 0.00 0.0502205 70.5
2021-07-24 11:50:00 64.5 59.2 50.0 64.5 64.5 3.3 4.7 3.1 245.5 308.8 0.00 0.0461294 70.5
2021-07-24 11:55:00 64.2 65.5 52.4 64.2 64.2 2.8 4.9 3.7 300.2 289.9 0.00 0.0451705 70.5
2021-07-24 12:00:00 63.9 63.8 51.4 63.9 63.9 4.0 5.1 4.2 245.9 280.7 0.00 0.0474899 70.4
2021-07-24 12:05:00 64.1 62.9 51.2 64.1 64.1 4.2 5.8 4.2 321.1 297.7 0.00 0.0437208 70.4
2021-07-24 12:10:00 63.7 62.3 50.6 63.7 63.7 6.2 8.0 5.7 265.0 300.6 0.00 0.0480140 70.4
2021-07-24 12:15:00 63.7 65.9 52.1 63.7 63.7 3.3 7.2 4.7 307.0 297.8 0.00 0.0539736 70.4
2021-07-24 12:20:00 63.7 68.3 53.1 63.7 63.7 3.8 5.6 4.2 279.0 289.8 0.00 0.0466821 70.3
2021-07-24 12:25:00 63.8 67.9 52.9 63.8 63.8 3.8 5.8 4.0 292.0 275.3 0.00 0.0442182 70.3
2021-07-24 12:30:00 63.7 65.8 52.0 63.7 63.7 5.3 6.5 4.4 300.2 277.8 0.00 0.0350234 70.2
2021-07-24 12:35:00 63.8 63.6 51.2 63.8 63.8 3.0 7.6 4.8 241.7 283.8 0.00 0.0282081 70.2
2021-07-24 12:40:00 63.8 62.6 50.7 63.8 63.8 3.7 6.5 4.2 294.1 277.0 0.00 0.0335670 70.2
2021-07-24 12:45:00 63.9 65.8 52.2 63.9 63.9 2.1 6.3 3.8 263.9 268.9 0.00 0.0408696 70.1
2021-07-24 12:50:00 64.5 65.7 52.7 64.5 64.5 3.3 5.6 3.7 266.8 280.5 0.00 0.0894647 70.0
2021-07-24 12:55:00 64.9 63.0 52.0 64.9 64.9 2.2 5.3 3.9 305.3 282.0 0.00 0.0789493 70.0
2021-07-24 13:00:00 65.2 58.6 50.4 65.2 65.2 4.0 5.5 3.7 283.2 268.5 0.00 0.0947151 69.9
2021-07-24 13:05:00 66.3 57.2 50.7 66.3 66.3 4.6 5.6 4.1 318.2 305.0 0.00 0.1719703 69.9
2021-07-24 13:10:00 67.1 51.9 48.8 67.1 67.1 4.9 6.5 4.3 324.9 308.2 0.00 0.1467664 69.9
2021-07-24 13:15:00 67.4 54.0 50.2 67.4 67.4 4.4 5.1 3.5 256.8 280.7 0.00 0.1160864 69.9
2021-07-24 13:20:00 67.7 54.4 50.7 67.7 67.7 2.6 5.6 3.7 280.0 278.1 0.00 0.2006852 69.9
2021-07-24 13:25:00 67.4 51.7 49.0 67.4 67.4 3.7 6.3 4.2 274.9 288.9 0.00 0.0766405 70.0
2021-07-24 13:30:00 67.2 52.0 49.0 67.2 67.2 4.2 4.6 3.2 251.9 258.3 0.00 0.0567929 70.1
2021-07-24 13:35:00 67.4 52.3 49.3 67.4 67.4 2.2 3.5 2.1 255.3 263.9 0.00 0.0577161 70.1
2021-07-24 13:40:00 67.4 53.7 50.1 67.4 67.4 3.1 4.2 2.8 231.0 266.1 0.00 0.0802102 70.2
2021-07-24 13:45:00 68.3 57.9 52.9 68.3 68.3 3.3 4.4 2.8 240.5 264.0 0.00 0.1677995 70.3
2021-07-24 13:50:00 69.9 50.5 50.6 69.9 69.9 2.4 4.4 3.0 225.2 255.8 0.00 0.2819626 70.4
2021-07-24 13:55:00 71.2 42.8 47.4 71.2 71.2 5.3 5.3 3.8 287.9 284.2 0.00 0.3398243 70.4
2021-07-24 14:00:00 71.6 44.2 48.7 71.6 71.6 3.3 4.4 2.6 325.4 303.0 0.00 0.1875079 70.5
2021-07-24 14:05:00 71.5 48.2 50.9 71.5 71.5 0.8 4.2 2.5 283.7 298.9 0.00 0.1493699 70.7
2021-07-24 14:10:00 71.7 46.1 49.9 71.7 71.7 1.9 3.3 1.8 328.9 311.0 0.00 0.1275577 70.9
2021-07-24 14:15:00 71.8 43.4 48.3 71.8 71.8 1.5 2.6 1.7 123.9 73.3 0.00 0.1316815 71.2
2021-07-24 14:20:00 71.8 45.9 49.8 71.8 71.8 0.0 2.1 0.9 108.7 191.4 0.00 0.0950658 71.4
2021-07-24 14:25:00 71.4 46.6 49.9 71.4 71.4 2.8 3.3 2.3 279.1 272.8 0.00 0.0682819 71.6
2021-07-24 14:30:00 70.9 45.7 48.9 70.9 70.9 2.2 3.3 2.7 305.3 284.3 0.00 0.0662466 71.7
2021-07-24 14:35:00 71.1 49.0 51.0 71.1 71.1 0.0 2.4 1.5 22.9 332.2 0.00 0.0687259 71.9
2021-07-24 14:40:00 71.4 46.8 50.0 71.4 71.4 0.0 0.8 0.1 157.0 50.3 0.00 0.0751864 72.0
2021-07-24 14:45:00 71.2 48.7 50.9 71.2 71.2 3.0 3.5 1.7 315.9 297.7 0.00 0.0865475 72.1
2021-07-24 14:50:00 71.5 53.2 53.5 71.5 71.5 2.8 3.3 2.0 115.5 77.5 0.00 0.1621649 72.2
2021-07-24 14:55:00 72.9 43.5 49.4 72.9 72.9 2.2 3.0 1.9 48.1 45.6 0.00 0.2062780 72.2
2021-07-24 15:00:00 74.0 37.3 46.3 74.0 74.0 2.4 3.7 2.0 92.1 30.8 0.00 0.2734345 72.3
2021-07-24 15:05:00 74.7 40.1 48.9 74.7 74.7 3.3 3.5 1.8 83.0 98.0 0.00 0.2801652 72.3
2021-07-24 15:10:00 75.1 40.9 49.7 75.1 75.1 0.0 4.9 2.7 31.6 73.6 0.00 0.3175101 72.5
2021-07-24 15:15:00 74.9 39.0 48.3 74.9 74.9 2.2 4.6 1.9 68.9 58.1 0.00 0.1284023 72.7
2021-07-24 15:20:00 73.9 46.7 52.3 73.9 73.9 1.7 3.1 2.3 76.2 100.3 0.00 0.0864581 73.0
2021-07-24 15:25:00 73.5 43.7 50.1 73.5 73.5 0.0 3.0 1.6 150.9 100.8 0.00 0.0962196 73.2
2021-07-24 15:30:00 73.9 42.9 49.9 73.9 73.9 2.1 2.6 1.2 239.3 119.9 0.00 0.1541946 73.5
2021-07-24 15:35:00 75.0 38.7 48.2 75.0 75.0 1.9 4.0 2.7 156.1 162.5 0.00 0.2343572 73.7
2021-07-24 15:40:00 75.3 40.7 49.8 75.3 75.3 2.2 3.1 2.3 78.2 96.6 0.00 0.2295169 73.9
2021-07-24 15:45:00 76.3 37.4 48.4 76.3 76.3 3.7 3.7 2.0 288.6 165.0 0.00 0.2645649 74.1
2021-07-24 15:50:00 76.6 37.0 48.3 76.6 76.6 1.2 5.5 2.5 191.1 215.8 0.00 0.2636776 74.3
2021-07-24 15:55:00 76.4 40.2 50.4 76.4 76.4 4.2 5.8 3.2 91.3 94.0 0.00 0.2602035 74.5
2021-07-24 16:00:00 76.2 36.3 47.5 76.2 76.2 3.7 5.5 3.6 61.4 104.0 0.00 0.2236984 74.8
2021-07-24 16:05:00 75.3 38.9 48.5 75.3 75.3 3.8 6.2 3.0 201.2 179.7 0.00 0.0893179 75.1
2021-07-24 16:10:00 74.8 41.9 50.1 74.8 74.8 2.6 4.7 3.1 127.8 131.7 0.00 0.0719317 75.4
2021-07-24 16:15:00 74.2 38.9 47.5 74.2 74.2 3.8 6.7 3.5 223.9 158.3 0.00 0.0622059 75.6
2021-07-24 16:20:00 74.8 40.4 49.1 74.8 74.8 3.5 7.2 4.1 170.8 194.0 0.00 0.1979611 75.8
2021-07-24 16:25:00 75.5 36.8 47.3 75.5 75.5 4.7 9.4 5.7 217.9 202.0 0.00 0.2193069 76.0
2021-07-24 16:30:00 76.1 32.5 44.5 76.1 76.1 3.3 8.0 4.8 140.5 211.2 0.00 0.2253949 76.1
2021-07-24 16:35:00 76.9 36.4 48.2 76.9 76.9 1.9 4.7 3.1 158.0 269.7 0.00 0.2235571 76.2
2021-07-24 16:40:00 76.7 37.5 48.8 76.7 76.7 3.1 8.3 4.0 90.0 168.3 0.00 0.2062866 76.3
2021-07-24 16:45:00 76.7 33.8 46.1 76.7 76.7 4.2 5.1 3.5 128.6 146.0 0.00 0.1909734 76.5
2021-07-24 16:50:00 77.3 35.8 48.1 77.3 77.3 3.3 5.3 3.5 129.5 144.8 0.00 0.1939299 76.6
2021-07-24 16:55:00 77.2 39.3 50.5 77.2 77.2 4.6 6.7 3.9 45.6 103.5 0.00 0.1870541 76.8
2021-07-24 17:00:00 76.7 35.1 47.0 76.7 76.7 5.8 8.1 5.7 30.2 91.2 0.00 0.1820325 77.0
2021-07-24 17:05:00 77.2 36.6 48.7 77.2 77.2 1.7 7.4 3.0 79.6 32.2 0.00 0.1773723 77.1
2021-07-24 17:10:00 77.4 30.5 44.0 77.4 77.4 2.6 4.9 3.4 117.4 120.9 0.00 0.1810139 77.3
2021-07-24 17:15:00 77.7 36.4 48.9 77.7 77.7 5.3 5.3 2.5 127.9 113.1 0.00 0.1781919 77.5
2021-07-24 17:20:00 78.0 33.1 46.6 78.0 78.0 5.1 7.6 4.3 118.7 135.6 0.00 0.1686240 77.6
2021-07-24 17:25:00 78.0 37.3 49.8 78.0 78.0 3.3 5.3 3.0 155.9 136.3 0.00 0.1582306 77.7
2021-07-24 17:30:00 77.7 35.3 48.1 77.7 77.7 4.7 12.2 4.5 136.2 132.9 0.00 0.1516689 77.8
2021-07-24 17:35:00 76.2 42.4 51.7 76.2 76.2 1.9 6.3 4.4 183.7 130.7 0.00 0.0628922 77.9
2021-07-24 17:40:00 74.9 36.9 46.8 74.9 74.9 4.0 6.0 4.0 166.6 153.1 0.00 0.0429365 78.0
2021-07-24 17:45:00 73.3 36.6 45.2 73.3 73.3 7.1 10.6 6.9 154.9 183.4 0.00 0.0415516 78.1
2021-07-24 17:50:00 73.3 39.1 46.9 73.3 73.3 4.6 9.7 6.6 203.5 177.5 0.00 0.0775819 78.1
2021-07-24 17:55:00 74.6 36.8 46.5 74.6 74.6 3.7 9.9 6.7 73.4 186.9 0.00 0.1311757 78.1
2021-07-24 18:00:00 74.8 37.2 46.9 74.8 74.8 2.4 9.7 5.8 192.6 198.7 0.00 0.1047976 78.0
2021-07-24 18:05:00 74.6 38.2 47.4 74.6 74.6 3.5 6.7 3.8 161.8 169.4 0.00 0.0877034 77.9
2021-07-24 18:10:00 74.9 38.5 48.0 74.9 74.9 3.8 8.3 4.8 171.3 190.9 0.00 0.1232289 77.9
2021-07-24 18:15:00 75.7 34.5 45.8 75.7 75.7 6.0 6.0 3.3 212.1 162.5 0.00 0.1274334 77.8
2021-07-24 18:20:00 75.7 37.2 47.8 75.7 75.7 4.2 8.7 5.5 141.9 160.7 0.00 0.1297590 77.7
2021-07-24 18:25:00 74.1 44.1 50.9 74.1 74.1 2.6 6.0 3.9 142.9 137.9 0.00 0.1134414 77.6
2021-07-24 18:30:00 74.1 36.7 45.9 74.1 74.1 3.7 3.8 2.4 252.9 124.1 0.00 0.0987216 77.6
2021-07-24 18:35:00 73.9 38.8 47.2 73.9 73.9 8.0 8.0 4.3 174.7 166.6 0.00 0.0560605 77.5
2021-07-24 18:40:00 72.4 38.5 45.7 72.4 72.4 5.1 9.4 4.9 165.3 184.8 0.00 0.0138414 77.4
2021-07-24 18:45:00 72.1 39.1 45.9 72.1 72.1 3.1 8.7 5.2 207.3 181.5 0.00 0.0104111 77.3
2021-07-24 18:50:00 71.3 40.1 45.8 71.3 71.3 3.5 7.4 4.8 172.2 162.1 0.00 0.0081226 77.2
2021-07-24 18:55:00 70.8 41.6 46.3 70.8 70.8 6.3 7.2 4.4 216.7 199.6 0.00 0.0068811 77.1
2021-07-24 19:00:00 70.5 41.7 46.1 70.5 70.5 3.8 7.8 4.9 189.1 202.1 0.00 0.0060119 76.9
2021-07-24 19:05:00 70.1 42.5 46.3 70.1 70.1 3.5 6.3 3.7 247.2 205.6 0.00 0.0051464 76.7
2021-07-24 19:10:00 69.8 41.6 45.4 69.8 69.8 4.7 5.3 3.4 173.9 201.0 0.00 0.0046749 76.5
2021-07-24 19:15:00 69.6 46.8 48.3 69.6 69.6 2.1 5.1 3.2 256.7 211.3 0.00 0.0043752 76.4
2021-07-24 19:20:00 69.6 43.8 46.6 69.6 69.6 1.7 5.8 3.2 243.6 220.9 0.00 0.0038798 76.1
2021-07-24 19:25:00 68.4 50.3 49.2 68.4 68.4 4.6 5.5 3.1 280.6 259.6 0.00 0.0031704 75.9
2021-07-24 19:30:00 65.7 57.7 50.4 65.7 65.7 3.3 4.4 3.1 322.0 285.7 0.00 0.0022068 75.7
2021-07-24 19:35:00 64.0 63.4 51.4 64.0 64.0 2.6 3.3 2.6 288.6 293.1 0.00 0.0019189 75.5
2021-07-24 19:40:00 63.1 61.5 49.6 63.1 63.1 2.1 3.1 2.6 220.9 297.2 0.00 0.0017694 75.3
2021-07-24 19:45:00 63.5 62.1 50.3 63.5 63.5 3.3 3.3 2.6 305.1 291.2 0.00 0.0017630 75.1
2021-07-24 19:50:00 63.3 63.9 50.9 63.3 63.3 2.2 4.0 3.1 302.6 297.1 0.00 0.0013591 74.8

Data is courtesy of the NM Climate Center. DO NOT USE IN LEGAL PROCEEDINGS.